sensor_id;sensor_type;location;lat;lon;timestamp;pressure;altitude;pressure_sealevel;temperature;humidity
79540;BME280;68991;52.122;5.406;2023-04-25T04:09:45;101354.22;;;7.10;72.70
79540;BME280;68991;52.122;5.406;2023-04-25T05:02:49;101404.28;;;7.03;72.77
79540;BME280;68991;52.122;5.406;2023-04-25T05:09:04;101408.66;;;7.06;73.17
79540;BME280;68991;52.122;5.406;2023-04-25T05:11:51;101412.28;;;7.05;72.85
79540;BME280;68991;52.122;5.406;2023-04-25T06:56:05;101506.63;;;7.42;73.33
79540;BME280;68991;52.122;5.406;2023-04-25T06:58:52;101513.69;;;7.44;72.53
79540;BME280;68991;52.122;5.406;2023-04-25T07:01:19;101510.97;;;7.46;73.32
79540;BME280;68991;52.122;5.406;2023-04-25T07:03:46;101518.91;;;7.49;73.15
79540;BME280;68991;52.122;5.406;2023-04-25T07:06:23;101517.06;;;7.51;73.17
79540;BME280;68991;52.122;5.406;2023-04-25T07:08:52;101524.16;;;7.54;72.95
79540;BME280;68991;52.122;5.406;2023-04-25T07:11:22;101526.78;;;7.55;72.77
79540;BME280;68991;52.122;5.406;2023-04-25T07:13:49;101530.31;;;7.57;72.41
79540;BME280;68991;52.122;5.406;2023-04-25T07:16:16;101529.34;;;7.58;72.32
79540;BME280;68991;52.122;5.406;2023-04-25T07:18:42;101526.63;;;7.61;72.91
79540;BME280;68991;52.122;5.406;2023-04-25T07:21:09;101535.47;;;7.63;72.91
79540;BME280;68991;52.122;5.406;2023-04-25T07:23:38;101538.97;;;7.65;72.37
79540;BME280;68991;52.122;5.406;2023-04-25T07:26:07;101542.50;;;7.67;73.03
79540;BME280;68991;52.122;5.406;2023-04-25T07:28:35;101544.28;;;7.68;72.86
79540;BME280;68991;52.122;5.406;2023-04-25T07:31:02;101548.66;;;7.71;72.93
79540;BME280;68991;52.122;5.406;2023-04-25T07:33:30;101546.81;;;7.73;72.11
79540;BME280;68991;52.122;5.406;2023-04-25T07:35:59;101552.94;;;7.76;72.99
79540;BME280;68991;52.122;5.406;2023-04-25T07:38:26;101552.91;;;7.79;72.22
79540;BME280;68991;52.122;5.406;2023-04-25T07:40:53;101554.53;;;7.83;73.02
79540;BME280;68991;52.122;5.406;2023-04-25T07:43:19;101556.22;;;7.87;73.69
79540;BME280;68991;52.122;5.406;2023-04-25T07:45:46;101562.34;;;7.92;73.06
79540;BME280;68991;52.122;5.406;2023-04-25T07:48:19;101563.13;;;7.96;73.01
79540;BME280;68991;52.122;5.406;2023-04-25T07:50:46;101558.56;;;7.99;72.47
79540;BME280;68991;52.122;5.406;2023-04-25T07:53:12;101564.72;;;8.03;72.58
79540;BME280;68991;52.122;5.406;2023-04-25T07:55:39;101566.41;;;8.06;73.14
79540;BME280;68991;52.122;5.406;2023-04-25T07:58:07;101565.38;;;8.11;72.69
79540;BME280;68991;52.122;5.406;2023-04-25T08:00:33;101566.19;;;8.15;72.52
79540;BME280;68991;52.122;5.406;2023-04-25T08:03:00;101573.19;;;8.19;73.37
79540;BME280;68991;52.122;5.406;2023-04-25T08:05:27;101586.41;;;8.25;72.46
79540;BME280;68991;52.122;5.406;2023-04-25T08:07:54;101582.75;;;8.27;72.96
79540;BME280;68991;52.122;5.406;2023-04-25T08:10:24;101583.59;;;8.31;72.14
79540;BME280;68991;52.122;5.406;2023-04-25T08:12:51;101587.03;;;8.36;72.18
79540;BME280;68991;52.122;5.406;2023-04-25T08:15:18;101584.19;;;8.40;72.42
79540;BME280;68991;52.122;5.406;2023-04-25T08:17:48;101593.00;;;8.44;72.35
79540;BME280;68991;52.122;5.406;2023-04-25T08:20:15;101595.59;;;8.47;72.22
79540;BME280;68991;52.122;5.406;2023-04-25T08:22:46;101602.63;;;8.51;72.54
79540;BME280;68991;52.122;5.406;2023-04-25T08:25:12;101611.44;;;8.56;71.80
79540;BME280;68991;52.122;5.406;2023-04-25T08:27:39;101623.81;;;8.60;71.79
79540;BME280;68991;52.122;5.406;2023-04-25T08:30:06;101629.97;;;8.64;71.23
79540;BME280;68991;52.122;5.406;2023-04-25T08:32:35;101628.06;;;8.67;71.11
79540;BME280;68991;52.122;5.406;2023-04-25T08:35:04;101627.09;;;8.70;70.60
79540;BME280;68991;52.122;5.406;2023-04-25T08:37:34;101634.16;;;8.72;71.21
79540;BME280;68991;52.122;5.406;2023-04-25T08:40:06;101634.06;;;8.75;70.36
79540;BME280;68991;52.122;5.406;2023-04-25T08:42:37;101633.16;;;8.76;70.82
79540;BME280;68991;52.122;5.406;2023-04-25T08:45:04;101640.19;;;8.79;71.25
79540;BME280;68991;52.122;5.406;2023-04-25T08:47:34;101631.25;;;8.80;70.69
79540;BME280;68991;52.122;5.406;2023-04-25T08:50:04;101634.78;;;8.82;70.78
79540;BME280;68991;52.122;5.406;2023-04-25T08:52:43;101633.91;;;8.81;70.92
79540;BME280;68991;52.122;5.406;2023-04-25T08:55:12;101649.97;;;8.81;70.85
79540;BME280;68991;52.122;5.406;2023-04-25T08:57:44;101650.88;;;8.82;70.25
79540;BME280;68991;52.122;5.406;2023-04-25T09:00:12;101657.06;;;8.82;70.73
79540;BME280;68991;52.122;5.406;2023-04-25T09:02:42;101657.97;;;8.83;70.34
79540;BME280;68991;52.122;5.406;2023-04-25T09:05:13;101672.22;;;8.85;70.88
79540;BME280;68991;52.122;5.406;2023-04-25T09:07:46;101664.09;;;8.86;70.48
79540;BME280;68991;52.122;5.406;2023-04-25T09:10:16;101668.56;;;8.87;70.48
79540;BME280;68991;52.122;5.406;2023-04-25T09:13:01;101672.94;;;8.90;69.77
79540;BME280;68991;52.122;5.406;2023-04-25T09:15:28;101670.22;;;8.91;70.57
79540;BME280;68991;52.122;5.406;2023-04-25T09:18:04;101669.25;;;8.94;70.65
79540;BME280;68991;52.122;5.406;2023-04-25T09:20:31;101666.44;;;8.98;70.20
79540;BME280;68991;52.122;5.406;2023-04-25T09:23:16;101671.69;;;9.02;70.21
79540;BME280;68991;52.122;5.406;2023-04-25T09:25:50;101671.59;;;9.05;70.29
79540;BME280;68991;52.122;5.406;2023-04-25T09:28:23;101675.91;;;9.10;69.52
79540;BME280;68991;52.122;5.406;2023-04-25T09:30:56;101688.34;;;9.13;70.20
79540;BME280;68991;52.122;5.406;2023-04-25T09:33:31;101688.25;;;9.16;69.14
79540;BME280;68991;52.122;5.406;2023-04-25T09:36:06;101692.63;;;9.18;68.54
79540;BME280;68991;52.122;5.406;2023-04-25T09:38:52;101686.31;;;9.21;68.44
79540;BME280;68991;52.122;5.406;2023-04-25T09:41:23;101692.38;;;9.27;69.23
79540;BME280;68991;52.122;5.406;2023-04-25T09:43:51;101695.84;;;9.31;69.41
79540;BME280;68991;52.122;5.406;2023-04-25T09:46:21;101707.34;;;9.34;68.90
79540;BME280;68991;52.122;5.406;2023-04-25T09:48:51;101709.00;;;9.38;68.91
79540;BME280;68991;52.122;5.406;2023-04-25T09:51:25;101721.38;;;9.42;69.13
79540;BME280;68991;52.122;5.406;2023-04-25T09:53:54;101726.63;;;9.47;69.47
79540;BME280;68991;52.122;5.406;2023-04-25T09:56:22;101721.22;;;9.48;69.50
79540;BME280;68991;52.122;5.406;2023-04-25T09:58:50;101730.03;;;9.52;69.40
79540;BME280;68991;52.122;5.406;2023-04-25T10:01:21;101735.34;;;9.54;69.19
79540;BME280;68991;52.122;5.406;2023-04-25T10:03:50;101749.53;;;9.57;69.39
79540;BME280;68991;52.122;5.406;2023-04-25T10:06:22;101741.50;;;9.57;68.90
79540;BME280;68991;52.122;5.406;2023-04-25T10:08:51;101739.66;;;9.59;69.59
79540;BME280;68991;52.122;5.406;2023-04-25T10:11:20;101742.28;;;9.61;69.54
79540;BME280;68991;52.122;5.406;2023-04-25T10:17:31;101738.47;;;9.68;69.02
79540;BME280;68991;52.122;5.406;2023-04-25T10:20:05;101740.22;;;9.70;68.96
79540;BME280;68991;52.122;5.406;2023-04-25T10:22:44;101735.69;;;9.71;67.88
79540;BME280;68991;52.122;5.406;2023-04-25T10:25:41;101726.69;;;9.73;67.53
79540;BME280;68991;52.122;5.406;2023-04-25T10:28:59;101729.25;;;9.76;67.50
79540;BME280;68991;52.122;5.406;2023-04-25T10:31:27;101735.41;;;9.80;67.96
79540;BME280;68991;52.122;5.406;2023-04-25T10:34:00;101736.19;;;9.83;68.02
79540;BME280;68991;52.122;5.406;2023-04-25T10:40:21;101730.34;;;9.97;68.41
79540;BME280;68991;52.122;5.406;2023-04-25T10:42:54;101731.09;;;10.02;68.79
79540;BME280;68991;52.122;5.406;2023-04-25T10:45:23;101737.19;;;10.07;69.12
79540;BME280;68991;52.122;5.406;2023-04-25T10:47:50;101735.25;;;10.11;68.32
79540;BME280;68991;52.122;5.406;2023-04-25T10:50:18;101724.41;;;10.14;68.47
79540;BME280;68991;52.122;5.406;2023-04-25T10:52:45;101735.16;;;10.15;66.28
79540;BME280;68991;52.122;5.406;2023-04-25T10:55:13;101735.16;;;10.14;66.37
79540;BME280;68991;52.122;5.406;2023-04-25T10:57:44;101729.63;;;10.20;66.61
79540;BME280;68991;52.122;5.406;2023-04-25T11:00:14;101743.78;;;10.25;67.22
79540;BME280;68991;52.122;5.406;2023-04-25T11:05:09;101734.47;;;10.35;67.31
79540;BME280;68991;52.122;5.406;2023-04-25T11:07:54;101735.34;;;10.35;66.75
79540;BME280;68991;52.122;5.406;2023-04-25T11:10:30;101737.88;;;10.40;66.71
79540;BME280;68991;52.122;5.406;2023-04-25T11:13:01;101751.31;;;10.40;64.94
79540;BME280;68991;52.122;5.406;2023-04-25T11:15:35;101769.25;;;10.39;65.60
79540;BME280;68991;52.122;5.406;2023-04-25T11:18:09;101766.41;;;10.44;66.17
79540;BME280;68991;52.122;5.406;2023-04-25T11:20:47;101770.75;;;10.48;66.34
79540;BME280;68991;52.122;5.406;2023-04-25T11:23:15;101767.88;;;10.53;66.00
79540;BME280;68991;52.122;5.406;2023-04-25T11:25:49;101781.31;;;10.53;66.23
79540;BME280;68991;52.122;5.406;2023-04-25T11:28:21;101779.41;;;10.56;66.42
79540;BME280;68991;52.122;5.406;2023-04-25T11:31:09;101782.00;;;10.59;66.29
79540;BME280;68991;52.122;5.406;2023-04-25T11:33:43;101779.25;;;10.61;66.51
79540;BME280;68991;52.122;5.406;2023-04-25T11:36:13;101780.03;;;10.64;66.95
79540;BME280;68991;52.122;5.406;2023-04-25T11:38:42;101788.94;;;10.66;66.94
79540;BME280;68991;52.122;5.406;2023-04-25T11:41:12;101782.69;;;10.66;66.58
79540;BME280;68991;52.122;5.406;2023-04-25T11:43:43;101783.44;;;10.69;66.83
79540;BME280;68991;52.122;5.406;2023-04-25T11:46:11;101792.41;;;10.70;67.00
79540;BME280;68991;52.122;5.406;2023-04-25T11:48:46;101789.63;;;10.71;66.96
79540;BME280;68991;52.122;5.406;2023-04-25T11:51:17;101792.31;;;10.71;66.29
79540;BME280;68991;52.122;5.406;2023-04-25T11:53:57;101793.16;;;10.73;65.90
79540;BME280;68991;52.122;5.406;2023-04-25T11:56:54;101796.66;;;10.75;66.50
79540;BME280;68991;52.122;5.406;2023-04-25T11:59:27;101786.94;;;10.71;66.33
79540;BME280;68991;52.122;5.406;2023-04-25T12:01:57;101784.13;;;10.74;66.50
79540;BME280;68991;52.122;5.406;2023-04-25T12:04:30;101777.84;;;10.75;66.32
79540;BME280;68991;52.122;5.406;2023-04-25T12:06:58;101779.53;;;10.78;66.45
79540;BME280;68991;52.122;5.406;2023-04-25T12:09:33;101782.09;;;10.81;66.37
79540;BME280;68991;52.122;5.406;2023-04-25T12:12:00;101784.72;;;10.84;65.64
79540;BME280;68991;52.122;5.406;2023-04-25T12:14:46;101790.09;;;10.84;64.80
79540;BME280;68991;52.122;5.406;2023-04-25T12:17:33;101797.19;;;10.85;65.01
79540;BME280;68991;52.122;5.406;2023-04-25T12:20:13;101799.00;;;10.84;63.87
79540;BME280;68991;52.122;5.406;2023-04-25T12:22:50;101799.13;;;10.81;64.28
79540;BME280;68991;52.122;5.406;2023-04-25T12:25:41;101804.38;;;10.84;64.38
79540;BME280;68991;52.122;5.406;2023-04-25T12:28:18;101807.03;;;10.86;63.26
79540;BME280;68991;52.122;5.406;2023-04-25T12:31:05;101806.16;;;10.85;63.51
79540;BME280;68991;52.122;5.406;2023-04-25T12:33:37;101810.66;;;10.85;62.85
79540;BME280;68991;52.122;5.406;2023-04-25T12:36:20;101817.78;;;10.86;63.56
79540;BME280;68991;52.122;5.406;2023-04-25T12:39:02;101808.72;;;10.88;63.80
79540;BME280;68991;52.122;5.406;2023-04-25T12:41:58;101809.56;;;10.90;62.79
79540;BME280;68991;52.122;5.406;2023-04-25T12:44:29;101814.00;;;10.91;62.49
79540;BME280;68991;52.122;5.406;2023-04-25T12:46:57;101813.97;;;10.93;62.60
79540;BME280;68991;52.122;5.406;2023-04-25T12:49:28;101810.25;;;10.95;62.28
79540;BME280;68991;52.122;5.406;2023-04-25T12:52:01;101810.16;;;10.98;62.97
79540;BME280;68991;52.122;5.406;2023-04-25T12:54:47;101807.38;;;11.02;62.75
79540;BME280;68991;52.122;5.406;2023-04-25T12:57:20;101806.25;;;11.07;62.81
79540;BME280;68991;52.122;5.406;2023-04-25T12:59:47;101800.72;;;11.12;62.94
79540;BME280;68991;52.122;5.406;2023-04-25T13:02:36;101795.91;;;11.20;63.19
79540;BME280;68991;52.122;5.406;2023-04-25T13:05:31;101802.81;;;11.27;62.94
79540;BME280;68991;52.122;5.406;2023-04-25T13:07:58;101800.84;;;11.32;62.63
79540;BME280;68991;52.122;5.406;2023-04-25T13:10:30;101805.19;;;11.36;63.11
79540;BME280;68991;52.122;5.406;2023-04-25T13:13:13;101808.66;;;11.39;62.87
79540;BME280;68991;52.122;5.406;2023-04-25T13:16:10;101810.41;;;11.40;62.08
79540;BME280;68991;52.122;5.406;2023-04-25T13:19:03;101812.97;;;11.43;62.39
79540;BME280;68991;52.122;5.406;2023-04-25T13:22:11;101818.41;;;11.42;62.36
79540;BME280;68991;52.122;5.406;2023-04-25T13:25:11;101817.59;;;11.40;61.94
79540;BME280;68991;52.122;5.406;2023-04-25T13:28:01;101822.91;;;11.41;62.78
79540;BME280;68991;52.122;5.406;2023-04-25T13:30:45;101817.41;;;11.44;62.98
79540;BME280;68991;52.122;5.406;2023-04-25T13:33:22;101818.16;;;11.48;61.72
79540;BME280;68991;52.122;5.406;2023-04-25T13:36:01;101828.78;;;11.53;61.38
79540;BME280;68991;52.122;5.406;2023-04-25T13:38:51;101821.47;;;11.56;62.31
79540;BME280;68991;52.122;5.406;2023-04-25T13:41:59;101817.84;;;11.57;62.47
79540;BME280;68991;52.122;5.406;2023-04-25T13:44:39;101817.75;;;11.59;62.50
79540;BME280;68991;52.122;5.406;2023-04-25T13:47:29;101824.88;;;11.61;63.00
79540;BME280;68991;52.122;5.406;2023-04-25T13:50:07;101825.75;;;11.62;62.96
79540;BME280;68991;52.122;5.406;2023-04-25T13:52:42;101823.91;;;11.62;63.22
79540;BME280;68991;52.122;5.406;2023-04-25T13:55:30;101823.91;;;11.62;63.05
79540;BME280;68991;52.122;5.406;2023-04-25T13:58:27;101831.13;;;11.62;62.41
79540;BME280;68991;52.122;5.406;2023-04-25T14:01:37;101830.25;;;11.61;62.37
79540;BME280;68991;52.122;5.406;2023-04-25T14:07:44;101835.63;;;11.61;63.19
79540;BME280;68991;52.122;5.406;2023-04-25T14:10:42;101836.44;;;11.63;63.27
79540;BME280;68991;52.122;5.406;2023-04-25T14:13:32;101840.06;;;11.62;63.31
79540;BME280;68991;52.122;5.406;2023-04-25T14:16:03;101833.69;;;11.65;63.68
79540;BME280;68991;52.122;5.406;2023-04-25T14:19:12;101835.50;;;11.64;63.75
79540;BME280;68991;52.122;5.406;2023-04-25T14:22:28;101839.09;;;11.65;63.71
79540;BME280;68991;52.122;5.406;2023-04-25T14:25:18;101831.91;;;11.65;63.90
79540;BME280;68991;52.122;5.406;2023-04-25T14:31:18;101844.69;;;11.59;63.49
79540;BME280;68991;52.122;5.406;2023-04-25T14:33:49;101836.72;;;11.56;62.69
79540;BME280;68991;52.122;5.406;2023-04-25T14:36:26;101828.72;;;11.54;61.53
79540;BME280;68991;52.122;5.406;2023-04-25T14:47:05;101835.63;;;11.61;63.26
79540;BME280;68991;52.122;5.406;2023-04-25T15:04:45;101840.25;;;11.58;62.51
79540;BME280;68991;52.122;5.406;2023-04-25T15:08:20;101851.03;;;11.58;62.46
79540;BME280;68991;52.122;5.406;2023-04-25T15:11:26;101850.16;;;11.57;62.16
79540;BME280;68991;52.122;5.406;2023-04-25T15:14:50;101850.94;;;11.59;63.42
79540;BME280;68991;52.122;5.406;2023-04-25T15:31:09;101879.22;;;11.72;63.51
79540;BME280;68991;52.122;5.406;2023-04-25T15:33:35;101884.53;;;11.74;62.73
79540;BME280;68991;52.122;5.406;2023-04-25T15:36:02;101888.94;;;11.76;62.62
79540;BME280;68991;52.122;5.406;2023-04-25T15:38:29;101885.31;;;11.77;62.61
79540;BME280;68991;52.122;5.406;2023-04-25T15:40:56;101879.88;;;11.79;61.59
79540;BME280;68991;52.122;5.406;2023-04-25T15:43:31;101887.06;;;11.78;62.39
79540;BME280;68991;52.122;5.406;2023-04-25T15:46:05;101886.16;;;11.79;61.79
79540;BME280;68991;52.122;5.406;2023-04-25T15:48:35;101902.34;;;11.78;61.38
79540;BME280;68991;52.122;5.406;2023-04-25T17:51:26;101961.03;;;11.19;64.38
79540;BME280;68991;52.122;5.406;2023-04-25T21:06:45;102073.28;;;8.50;66.72
79540;BME280;68991;52.122;5.406;2023-04-25T21:09:16;102071.56;;;8.48;66.43
79540;BME280;68991;52.122;5.406;2023-04-25T21:11:44;102080.56;;;8.45;66.73
79540;BME280;68991;52.122;5.406;2023-04-25T21:14:22;102064.56;;;8.41;66.81
79540;BME280;68991;52.122;5.406;2023-04-25T21:16:52;102069.13;;;8.37;66.69
79540;BME280;68991;52.122;5.406;2023-04-25T21:19:21;102066.50;;;8.34;67.02
79540;BME280;68991;52.122;5.406;2023-04-25T21:21:59;102065.69;;;8.31;66.64
79540;BME280;68991;52.122;5.406;2023-04-25T21:24:34;102064.84;;;8.27;67.32
79540;BME280;68991;52.122;5.406;2023-04-25T21:27:03;102060.44;;;8.25;67.14
79540;BME280;68991;52.122;5.406;2023-04-25T21:29:35;102066.75;;;8.21;66.54
79540;BME280;68991;52.122;5.406;2023-04-25T21:32:03;102062.34;;;8.18;66.84
79540;BME280;68991;52.122;5.406;2023-04-25T21:34:58;102068.69;;;8.14;66.43
79540;BME280;68991;52.122;5.406;2023-04-25T21:37:37;102070.50;;;8.12;66.39
79540;BME280;68991;52.122;5.406;2023-04-25T21:40:29;102062.56;;;8.08;66.63
79540;BME280;68991;52.122;5.406;2023-04-25T21:43:05;102073.31;;;8.05;67.15
79540;BME280;68991;52.122;5.406;2023-04-25T21:45:46;102074.28;;;8.02;66.71
79540;BME280;68991;52.122;5.406;2023-04-25T21:48:36;102072.53;;;7.99;66.65
79540;BME280;68991;52.122;5.406;2023-04-25T21:51:05;102077.97;;;7.96;66.85
79540;BME280;68991;52.122;5.406;2023-04-25T21:53:55;102084.28;;;7.92;67.48
79540;BME280;68991;52.122;5.406;2023-04-25T21:56:52;102080.72;;;7.90;66.79
79540;BME280;68991;52.122;5.406;2023-04-25T21:59:37;102077.28;;;7.85;67.41
79540;BME280;68991;52.122;5.406;2023-04-25T22:02:25;102084.44;;;7.83;66.88
79540;BME280;68991;52.122;5.406;2023-04-25T22:05:10;102089.84;;;7.80;67.27
79540;BME280;68991;52.122;5.406;2023-04-25T22:07:52;102087.22;;;7.77;67.03
79540;BME280;68991;52.122;5.406;2023-04-25T22:10:38;102095.31;;;7.74;67.42
79540;BME280;68991;52.122;5.406;2023-04-25T22:13:36;102088.25;;;7.70;67.35
79540;BME280;68991;52.122;5.406;2023-04-25T22:16:05;102092.78;;;7.68;67.47
79540;BME280;68991;52.122;5.406;2023-04-25T22:18:42;102090.09;;;7.67;67.31
79540;BME280;68991;52.122;5.406;2023-04-25T22:21:11;102091.94;;;7.63;67.20
79540;BME280;68991;52.122;5.406;2023-04-25T22:23:59;102105.38;;;7.60;67.50
79540;BME280;68991;52.122;5.406;2023-04-25T22:26:54;102101.88;;;7.57;67.52
79540;BME280;68991;52.122;5.406;2023-04-25T22:29:22;102103.69;;;7.55;67.04
79540;BME280;68991;52.122;5.406;2023-04-25T22:32:01;102104.63;;;7.52;67.39
79540;BME280;68991;52.122;5.406;2023-04-25T22:34:33;102102.91;;;7.48;67.32
79540;BME280;68991;52.122;5.406;2023-04-25T22:37:07;102114.56;;;7.45;67.51
79540;BME280;68991;52.122;5.406;2023-04-25T22:39:40;102110.16;;;7.43;67.03
79540;BME280;68991;52.122;5.406;2023-04-25T22:42:07;102112.88;;;7.40;67.09
79540;BME280;68991;52.122;5.406;2023-04-25T22:44:40;102117.34;;;7.38;67.42
79540;BME280;68991;52.122;5.406;2023-04-25T22:47:11;102110.28;;;7.34;67.66
79540;BME280;68991;52.122;5.406;2023-04-25T22:49:56;102114.78;;;7.32;67.44
79540;BME280;68991;52.122;5.406;2023-04-25T22:52:25;102124.66;;;7.28;67.44
79540;BME280;68991;52.122;5.406;2023-04-25T22:55:16;102115.78;;;7.23;67.72
79540;BME280;68991;52.122;5.406;2023-04-25T22:58:03;102118.50;;;7.22;67.53
79540;BME280;68991;52.122;5.406;2023-04-25T23:00:37;102120.34;;;7.18;67.73
79540;BME280;68991;52.122;5.406;2023-04-25T23:03:09;102117.69;;;7.17;67.64
79540;BME280;68991;52.122;5.406;2023-04-25T23:05:38;102117.75;;;7.14;67.73
79540;BME280;68991;52.122;5.406;2023-04-25T23:08:05;102113.34;;;7.11;67.63
79540;BME280;68991;52.122;5.406;2023-04-25T23:10:34;102127.59;;;7.09;68.18
79540;BME280;68991;52.122;5.406;2023-04-25T23:13:03;102120.53;;;7.06;68.03
79540;BME280;68991;52.122;5.406;2023-04-25T23:15:31;102127.69;;;7.04;68.08
79540;BME280;68991;52.122;5.406;2023-04-25T23:17:58;102126.84;;;7.00;68.08
79540;BME280;68991;52.122;5.406;2023-04-25T23:20:25;102122.41;;;6.98;68.35
79540;BME280;68991;52.122;5.406;2023-04-25T23:22:52;102125.19;;;6.93;68.18
79540;BME280;68991;52.122;5.406;2023-04-25T23:25:22;102130.53;;;6.93;67.66
79540;BME280;68991;52.122;5.406;2023-04-25T23:28:01;102126.13;;;6.89;68.36
79540;BME280;68991;52.122;5.406;2023-04-25T23:30:28;102132.41;;;6.87;67.91
79540;BME280;68991;52.122;5.406;2023-04-25T23:32:55;102128.84;;;6.86;67.90
79540;BME280;68991;52.122;5.406;2023-04-25T23:35:25;102130.63;;;6.84;68.49
79540;BME280;68991;52.122;5.406;2023-04-25T23:37:54;102127.06;;;6.84;68.30
79540;BME280;68991;52.122;5.406;2023-04-25T23:40:27;102126.22;;;6.82;68.46
79540;BME280;68991;52.122;5.406;2023-04-25T23:42:56;102125.38;;;6.78;68.31
79540;BME280;68991;52.122;5.406;2023-04-25T23:45:42;102126.31;;;6.76;68.50
79540;BME280;68991;52.122;5.406;2023-04-25T23:48:13;102116.53;;;6.73;68.41
79540;BME280;68991;52.122;5.406;2023-04-25T23:50:46;102114.78;;;6.72;68.47
79540;BME280;68991;52.122;5.406;2023-04-25T23:53:15;102108.56;;;6.72;68.75
79540;BME280;68991;52.122;5.406;2023-04-25T23:55:54;102113.03;;;6.70;68.53
79540;BME280;68991;52.122;5.406;2023-04-25T23:58:30;102121.06;;;6.68;68.06
